Time;durP1;ratioP1;P1;durP2;ratioP2;P2;SDS_P1;SDS_P2;PMS_P1;PMS_P2;Temp;Humidity;BMP_temperature;BMP_pressure;BME280_temperature;BME280_humidity;BME280_pressure;Samples;Min_cycle;Max_cycle;Signal;HPM_P1;HPM_P2
2022/04/11 00:01:30;;;;;;;16.10;8.97;;;;;;;3.56;82.52;101963.44;4982515;28;20293;-84
2022/04/11 00:03:55;;;;;;;20.08;9.50;;;;;;;3.55;82.25;101961.72;4973970;28;20298;-84
2022/04/11 00:06:21;;;;;;;17.30;9.63;;;;;;;3.54;82.31;101956.56;4984946;28;20399;-84
2022/04/11 00:08:46;;;;;;;15.35;9.07;;;;;;;3.50;82.99;101942.81;4977137;28;20366;-84
2022/04/11 00:11:11;;;;;;;15.82;9.40;;;;;;;3.52;82.97;101945.41;4980839;28;20444;-84
2022/04/11 00:13:37;;;;;;;16.77;9.27;;;;;;;3.49;82.51;101941.06;4971039;28;20026;-84
2022/04/11 00:16:05;;;;;;;17.42;9.30;;;;;;;3.48;82.96;101944.47;4975949;28;20296;-84
2022/04/11 00:18:30;;;;;;;16.90;8.85;;;;;;;3.46;83.17;101937.59;4988063;28;20026;-84
2022/04/11 00:20:56;;;;;;;16.30;9.33;;;;;;;3.48;83.41;101941.06;4978384;28;20034;-84
2022/04/11 00:23:21;;;;;;;16.02;9.50;;;;;;;3.48;83.88;101933.38;4977404;28;20290;-84
2022/04/11 00:25:46;;;;;;;17.92;9.73;;;;;;;3.46;83.76;101938.44;4985319;28;20026;-84
2022/04/11 00:28:12;;;;;;;17.90;9.30;;;;;;;3.46;83.86;101935.03;4978301;28;20438;-84
2022/04/11 00:30:37;;;;;;;17.30;9.82;;;;;;;3.47;83.95;101932.50;4989710;28;20289;-84
2022/04/11 00:33:02;;;;;;;18.03;9.50;;;;;;;3.47;83.66;101931.63;4977166;28;20027;-84
2022/04/11 00:35:28;;;;;;;18.33;9.82;;;;;;;3.49;83.43;101929.94;4973779;28;20325;-84
2022/04/11 00:37:53;;;;;;;19.33;10.18;;;;;;;3.49;83.41;101925.69;4989242;28;20037;-84
2022/04/11 00:40:19;;;;;;;19.42;10.57;;;;;;;3.50;83.42;101916.31;4975917;28;20042;-84
2022/04/11 00:42:48;;;;;;;19.20;10.95;;;;;;;3.50;83.76;101917.19;4982981;28;20031;-84
2022/04/11 00:45:14;;;;;;;18.08;10.40;;;;;;;3.49;83.52;101907.75;4973511;28;20023;-84
2022/04/11 00:47:39;;;;;;;19.40;10.30;;;;;;;3.50;83.36;101912.06;4983373;28;20085;-84
2022/04/11 00:50:08;;;;;;;20.77;10.90;;;;;;;3.50;82.86;101906.06;4979252;28;20077;-84
2022/04/11 00:52:37;;;;;;;19.40;11.27;;;;;;;3.52;83.08;101902.69;4979473;28;20057;-84
2022/04/11 00:55:09;;;;;;;20.98;10.55;;;;;;;3.52;83.47;101906.97;4976777;28;20057;-84
2022/04/11 00:57:35;;;;;;;20.50;11.18;;;;;;;3.52;82.92;101910.41;4978009;28;20435;-84
2022/04/11 01:00:04;;;;;;;20.92;11.18;;;;;;;3.52;82.80;101905.28;4979015;28;20476;-84
2022/04/11 01:02:29;;;;;;;21.50;11.77;;;;;;;3.53;83.24;101899.31;4979978;28;20269;-84
2022/04/11 01:04:54;;;;;;;20.00;11.35;;;;;;;3.54;82.62;101902.75;4982783;28;20105;-84
2022/04/11 01:07:20;;;;;;;21.50;11.17;;;;;;;3.52;82.74;101889.88;4984054;28;20169;-84
2022/04/11 01:09:45;;;;;;;23.30;12.23;;;;;;;3.55;81.74;101894.19;4980614;28;20285;-84
2022/04/11 01:12:14;;;;;;;22.75;11.90;;;;;;;3.57;82.64;101892.53;4978014;28;20471;-84
2022/04/11 01:14:39;;;;;;;22.33;12.05;;;;;;;3.58;83.45;101899.41;4987136;28;20515;-84
2022/04/11 01:17:05;;;;;;;25.95;12.68;;;;;;;3.57;82.89;101882.28;4975377;28;20034;-84
2022/04/11 01:19:30;;;;;;;21.45;12.43;;;;;;;3.60;83.64;101891.75;4990944;28;20297;-84
2022/04/11 01:21:55;;;;;;;21.30;11.45;;;;;;;3.59;83.70;101880.63;4981392;28;20097;-84
2022/04/11 01:24:22;;;;;;;25.77;12.68;;;;;;;3.59;81.84;101883.19;4984434;28;20033;-84
2022/04/11 01:26:49;;;;;;;22.15;12.65;;;;;;;3.60;83.39;101884.94;4972484;28;20042;-84
2022/04/11 01:29:18;;;;;;;22.33;11.90;;;;;;;3.58;83.02;101884.03;4990881;28;20080;-84
2022/04/11 01:31:43;;;;;;;24.45;13.00;;;;;;;3.55;83.63;101882.25;4975511;28;20292;-84
2022/04/11 01:34:09;;;;;;;21.73;12.98;;;;;;;3.55;83.65;101881.38;4990465;28;20573;-84
2022/04/11 01:36:34;;;;;;;24.25;13.90;;;;;;;3.54;81.96;101882.25;4985222;28;20081;-84
2022/04/11 01:39:00;;;;;;;27.75;13.73;;;;;;;3.55;81.86;101889.06;4987193;28;20026;-84
2022/04/11 01:41:25;;;;;;;24.38;13.90;;;;;;;3.54;83.35;101887.38;4984294;28;20545;-84
2022/04/11 01:43:50;;;;;;;26.25;14.32;;;;;;;3.52;83.72;101884.75;4990280;28;20054;-84
2022/04/11 01:46:16;;;;;;;26.52;14.38;;;;;;;3.53;81.87;101891.63;4987660;28;20030;-84
2022/04/11 01:48:41;;;;;;;28.00;14.30;;;;;;;3.48;83.20;101882.94;4988353;28;20022;-84
2022/04/11 01:51:06;;;;;;;25.58;13.75;;;;;;;3.48;82.87;101882.13;4976502;28;20043;-84
2022/04/11 01:53:32;;;;;;;28.02;14.60;;;;;;;3.53;83.83;101886.50;4983304;28;20050;-84
2022/04/11 01:55:58;;;;;;;28.20;14.55;;;;;;;3.53;82.92;101883.94;4990982;28;20057;-84
2022/04/11 01:58:23;;;;;;;24.42;14.15;;;;;;;3.51;84.06;101880.47;4990254;28;20054;-84
2022/04/11 02:00:49;;;;;;;24.67;14.25;;;;;;;3.49;81.76;101887.25;4981542;28;20541;-84
2022/04/11 02:03:14;;;;;;;27.05;14.57;;;;;;;3.47;82.03;101878.69;4971424;28;20027;-84
2022/04/11 02:05:41;;;;;;;24.98;14.13;;;;;;;3.45;83.65;101871.78;4978285;28;20026;-84
2022/04/11 02:08:07;;;;;;;25.80;14.40;;;;;;;3.50;83.87;101873.59;4989557;28;20268;-84
2022/04/11 02:10:35;;;;;;;24.70;14.27;;;;;;;3.51;83.18;101879.59;4981566;28;20038;-84
2022/04/11 02:13:00;;;;;;;26.27;14.85;;;;;;;3.48;82.08;101872.69;4971479;28;20109;-84
2022/04/11 02:15:26;;;;;;;29.55;14.27;;;;;;;3.52;83.69;101881.34;4977047;28;20117;-84
2022/04/11 02:17:51;;;;;;;29.63;14.50;;;;;;;3.52;84.30;101877.06;4990120;28;20711;-84
2022/04/11 02:20:17;;;;;;;28.25;14.80;;;;;;;3.50;84.08;101877.88;4989032;28;20026;-84
2022/04/11 02:22:44;;;;;;;27.33;14.77;;;;;;;3.46;83.92;101874.38;4989934;28;20101;-84
2022/04/11 02:25:10;;;;;;;26.55;14.50;;;;;;;3.44;84.07;101876.03;4978911;28;20045;-84
2022/04/11 02:27:35;;;;;;;26.73;14.75;;;;;;;3.42;82.56;101884.50;4990938;28;20030;-84
2022/04/11 02:30:01;;;;;;;27.20;15.00;;;;;;;3.42;83.50;101887.06;4983277;28;20450;-84
2022/04/11 02:32:26;;;;;;;26.40;15.27;;;;;;;3.38;82.94;101873.34;4993505;28;20113;-84
2022/04/11 02:34:51;;;;;;;27.48;15.98;;;;;;;3.36;82.40;101885.25;4983849;28;20051;-84
2022/04/11 02:37:17;;;;;;;27.50;14.73;;;;;;;3.35;82.87;101885.19;4992844;28;20578;-84
2022/04/11 02:39:42;;;;;;;27.40;15.07;;;;;;;3.32;83.57;101886.03;4979425;28;20277;-84
2022/04/11 02:42:07;;;;;;;28.40;15.23;;;;;;;3.26;83.53;101883.31;4987048;28;20101;-84
2022/04/11 02:44:33;;;;;;;27.70;15.25;;;;;;;3.23;83.39;101878.13;4982351;28;20293;-84
2022/04/11 02:46:58;;;;;;;24.85;14.68;;;;;;;3.18;82.26;101874.59;4993822;28;20030;-84
2022/04/11 02:49:23;;;;;;;27.93;15.07;;;;;;;3.16;83.62;101878.81;4986831;28;20034;-84
2022/04/11 02:51:48;;;;;;;25.83;14.53;;;;;;;3.11;83.51;101876.16;4992686;28;20305;-84
2022/04/11 02:54:14;;;;;;;27.02;15.20;;;;;;;3.08;84.19;101878.63;4985856;28;20293;-84
2022/04/11 02:56:40;;;;;;;27.70;14.73;;;;;;;3.04;83.75;101883.66;4992778;28;20058;-84
2022/04/11 02:59:06;;;;;;;28.98;14.43;;;;;;;3.00;83.63;101875.00;4982423;28;20025;-84
2022/04/11 03:01:31;;;;;;;27.60;14.93;;;;;;;2.96;83.47;101875.78;4992624;28;20446;-84
2022/04/11 03:03:56;;;;;;;25.77;14.27;;;;;;;2.92;83.52;101873.13;4987814;28;20066;-84
2022/04/11 03:06:21;;;;;;;24.33;14.00;;;;;;;2.86;84.35;101868.72;5010052;28;20029;-84
2022/04/11 03:08:47;;;;;;;25.43;14.00;;;;;;;2.80;84.03;101868.56;4975007;28;20388;-84
2022/04/11 03:11:12;;;;;;;28.23;14.70;;;;;;;2.75;84.68;101865.03;4979589;28;20278;-84
2022/04/11 03:13:38;;;;;;;25.52;14.25;;;;;;;2.70;84.70;101866.59;4988092;28;20034;-84
2022/04/11 03:16:03;;;;;;;27.80;14.95;;;;;;;2.62;84.77;101861.28;4990117;28;20033;-84
2022/04/11 03:18:28;;;;;;;28.20;14.73;;;;;;;2.59;84.43;101863.78;4992172;28;20320;-84
2022/04/11 03:20:54;;;;;;;25.27;13.98;;;;;;;2.54;84.98;101855.13;4988764;28;20035;-84
2022/04/11 03:23:19;;;;;;;25.90;14.07;;;;;;;2.48;84.20;101852.41;4982768;28;20466;-84
2022/04/11 03:25:44;;;;;;;27.63;14.52;;;;;;;2.43;84.42;101860.78;4987234;28;20037;-84
2022/04/11 03:28:09;;;;;;;25.15;13.55;;;;;;;2.35;84.69;101858.91;4987969;28;20058;-84
2022/04/11 03:30:35;;;;;;;24.95;13.55;;;;;;;2.28;84.11;101859.56;4991385;28;20075;-84
2022/04/11 03:33:00;;;;;;;27.30;13.80;;;;;;;2.22;84.56;101861.97;4984556;28;20035;-84
2022/04/11 03:35:25;;;;;;;24.45;13.45;;;;;;;2.18;85.16;101859.31;4984934;28;20039;-84
2022/04/11 03:37:51;;;;;;;26.27;15.03;;;;;;;2.11;85.12;101858.28;4991346;28;20488;-84
2022/04/11 03:40:19;;;;;;;27.95;14.65;;;;;;;2.06;85.62;101864.06;4991623;28;20285;-84
2022/04/11 03:42:44;;;;;;;24.27;13.38;;;;;;;2.01;85.48;101873.31;4986635;28;20440;-84
2022/04/11 03:45:11;;;;;;;26.63;14.50;;;;;;;1.95;85.48;101866.34;4978746;28;20550;-84
2022/04/11 03:47:37;;;;;;;25.02;14.00;;;;;;;1.90;85.84;101868.78;4976904;28;20149;-84
2022/04/11 03:50:03;;;;;;;28.65;14.15;;;;;;;1.87;85.95;101878.91;4983486;28;20132;-84
2022/04/11 03:52:28;;;;;;;23.73;13.70;;;;;;;1.82;85.79;101875.34;4990370;28;20415;-84
2022/04/11 03:54:54;;;;;;;29.20;14.85;;;;;;;1.77;85.81;101868.38;4990871;28;20041;-84
2022/04/11 03:57:19;;;;;;;25.70;13.77;;;;;;;1.71;85.65;101871.59;4991340;28;20030;-84
2022/04/11 03:59:45;;;;;;;26.35;14.07;;;;;;;1.69;85.98;101869.84;4990686;28;20026;-84
2022/04/11 04:02:10;;;;;;;28.85;14.73;;;;;;;1.66;86.25;101869.75;4979413;28;20023;-84
2022/04/11 04:04:35;;;;;;;26.90;14.23;;;;;;;1.61;86.28;101871.31;4984030;28;20400;-84
2022/04/11 04:07:00;;;;;;;28.98;14.75;;;;;;;1.56;86.26;101879.72;4986443;28;20285;-84
2022/04/11 04:09:26;;;;;;;26.50;14.45;;;;;;;1.53;86.45;101868.53;4979872;28;20412;-84
2022/04/11 04:11:51;;;;;;;29.60;15.18;;;;;;;1.51;86.62;101875.28;4983523;28;20057;-84
2022/04/11 04:14:16;;;;;;;28.73;15.15;;;;;;;1.48;87.01;101878.63;4985911;28;20061;-84
2022/04/11 04:16:42;;;;;;;27.05;13.65;;;;;;;1.45;86.91;101864.88;4979997;28;20092;-84
2022/04/11 04:19:08;;;;;;;26.88;14.45;;;;;;;1.42;87.06;101875.88;4991498;28;20507;-84
2022/04/11 04:21:33;;;;;;;30.55;14.75;;;;;;;1.39;87.62;101870.69;4991318;28;20037;-84
2022/04/11 04:23:58;;;;;;;29.98;15.07;;;;;;;1.37;87.50;101867.19;4992460;28;20479;-84
2022/04/11 04:26:23;;;;;;;29.63;15.30;;;;;;;1.35;87.66;101861.19;4981064;28;20358;-84
2022/04/11 04:28:49;;;;;;;29.17;14.63;;;;;;;1.31;87.57;101861.91;4989109;28;20092;-84
2022/04/11 04:31:14;;;;;;;29.20;14.47;;;;;;;1.31;87.69;101850.81;4988083;28;20038;-84
2022/04/11 04:33:39;;;;;;;30.65;15.50;;;;;;;1.28;87.81;101849.06;4988427;28;20293;-84
2022/04/11 04:36:05;;;;;;;27.98;14.73;;;;;;;1.26;86.94;101858.34;4979883;28;20034;-84
2022/04/11 04:38:30;;;;;;;31.15;15.50;;;;;;;1.24;87.73;101854.00;4990309;28;20491;-84
2022/04/11 04:40:57;;;;;;;28.85;15.10;;;;;;;1.22;87.47;101846.34;4979347;28;20072;-84
2022/04/11 04:43:22;;;;;;;32.20;15.95;;;;;;;1.21;87.69;101846.28;4976962;28;20034;-84
2022/04/11 04:45:47;;;;;;;31.77;15.40;;;;;;;1.21;87.25;101849.69;4980549;28;20033;-84
2022/04/11 04:48:13;;;;;;;27.83;14.63;;;;;;;1.19;87.40;101852.19;4986070;28;20042;-84
2022/04/11 04:50:38;;;;;;;27.08;14.63;;;;;;;1.20;87.95;101850.50;4988928;28;20500;-84
2022/04/11 04:53:04;;;;;;;28.40;14.17;;;;;;;1.18;87.50;101858.13;4989597;28;20096;-84
2022/04/11 04:55:29;;;;;;;28.35;15.05;;;;;;;1.16;87.93;101849.53;4977758;28;20284;-84
2022/04/11 04:57:54;;;;;;;29.92;14.73;;;;;;;1.14;88.26;101843.53;4983220;28;20400;-84
2022/04/11 05:00:20;;;;;;;27.20;14.27;;;;;;;1.14;87.14;101853.75;4990139;28;20029;-84
2022/04/11 05:02:45;;;;;;;28.30;14.77;;;;;;;1.14;88.18;101853.75;4991110;28;20050;-84
2022/04/11 05:05:13;;;;;;;31.15;14.90;;;;;;;1.16;88.57;101841.88;4989080;28;20391;-84
2022/04/11 05:07:38;;;;;;;27.30;14.18;;;;;;;1.18;88.55;101844.47;4988847;28;20026;-84
2022/04/11 05:10:04;;;;;;;29.25;14.73;;;;;;;1.18;88.75;101842.81;4972528;28;20054;-84
2022/04/11 05:12:38;;;;;;;29.23;14.48;;;;;;;1.20;88.67;101845.41;4972416;28;20034;-84
2022/04/11 05:15:04;;;;;;;28.52;14.95;;;;;;;1.22;88.97;101838.66;4979901;28;20081;-84
2022/04/11 05:17:29;;;;;;;27.98;14.93;;;;;;;1.26;88.56;101837.94;4972418;28;20452;-84
2022/04/11 05:19:55;;;;;;;27.60;14.47;;;;;;;1.33;88.78;101836.41;4982634;28;20068;-84
2022/04/11 05:22:20;;;;;;;30.53;15.77;;;;;;;1.40;88.55;101840.91;4981673;28;20289;-84
2022/04/11 05:24:45;;;;;;;31.90;14.60;;;;;;;1.46;88.59;101843.63;4970649;28;20282;-84
2022/04/11 05:27:10;;;;;;;27.92;13.80;;;;;;;1.52;88.89;101846.34;4969602;28;20038;-84
2022/04/11 05:29:36;;;;;;;30.97;14.80;;;;;;;1.52;88.66;101849.78;4971735;28;20499;-84
2022/04/11 05:32:01;;;;;;;30.70;15.47;;;;;;;1.59;88.64;101850.81;4990399;28;20284;-84
2022/04/11 05:34:27;;;;;;;29.60;14.93;;;;;;;1.64;88.07;101844.16;4977185;28;20356;-84
2022/04/11 05:36:52;;;;;;;28.77;15.32;;;;;;;1.72;88.49;101839.25;4990496;28;20022;-84
2022/04/11 05:39:17;;;;;;;29.83;15.13;;;;;;;1.80;88.73;101840.34;4990142;28;20018;-84
2022/04/11 05:41:42;;;;;;;31.10;16.45;;;;;;;1.88;88.71;101837.19;4972369;28;20088;-84
2022/04/11 05:44:08;;;;;;;31.02;15.68;;;;;;;1.96;88.47;101833.16;4975175;28;20085;-84
2022/04/11 05:46:34;;;;;;;30.60;14.90;;;;;;;2.03;87.03;101835.88;4968550;28;20508;-84
2022/04/11 05:48:59;;;;;;;27.00;13.97;;;;;;;2.14;87.62;101842.13;4967183;28;20034;-84
2022/04/11 05:51:26;;;;;;;28.33;15.17;;;;;;;2.23;87.50;101832.16;4974749;28;20360;-84
2022/04/11 05:53:51;;;;;;;31.20;15.77;;;;;;;2.31;88.11;101836.63;4981262;28;20367;-84
2022/04/11 05:56:16;;;;;;;33.00;16.02;;;;;;;2.44;88.55;101840.38;4974656;28;20042;-84
2022/04/11 05:58:42;;;;;;;34.17;16.73;;;;;;;2.54;86.67;101831.22;4962553;28;20035;-84
2022/04/11 06:01:07;;;;;;;35.07;16.77;;;;;;;2.66;87.70;101827.25;4973850;28;20740;-84
2022/04/11 06:03:36;;;;;;;32.47;15.85;;;;;;;2.81;85.84;101836.13;4983844;28;20278;-84
2022/04/11 06:06:01;;;;;;;35.15;16.45;;;;;;;2.95;84.86;101843.31;4990067;28;20037;-84
2022/04/11 06:08:27;;;;;;;33.75;16.23;;;;;;;3.08;85.43;101835.09;4974911;28;20038;-84
2022/04/11 06:10:52;;;;;;;33.25;16.13;;;;;;;3.28;84.64;101837.22;4978304;28;20077;-84
2022/04/11 06:13:17;;;;;;;30.60;15.82;;;;;;;3.44;84.28;101840.16;4980261;28;20042;-84
2022/04/11 06:15:43;;;;;;;29.35;16.05;;;;;;;3.58;81.84;101843.00;4974647;28;20060;-84
2022/04/11 06:18:08;;;;;;;32.40;16.20;;;;;;;3.70;84.05;101832.13;4990142;28;20463;-84
2022/04/11 06:20:33;;;;;;;28.98;16.23;;;;;;;3.84;82.75;101830.72;4991799;28;20026;-84
2022/04/11 06:22:59;;;;;;;31.85;16.30;;;;;;;4.00;83.43;101835.31;4988652;28;20033;-84
2022/04/11 06:25:24;;;;;;;30.60;16.63;;;;;;;4.17;83.85;101831.34;4982121;28;20030;-84
2022/04/11 06:27:49;;;;;;;28.77;16.42;;;;;;;4.48;81.67;101837.03;4981282;28;20038;-84
2022/04/11 06:30:14;;;;;;;25.63;15.30;;;;;;;4.81;79.89;101834.16;4975331;28;20031;-84
2022/04/11 06:32:40;;;;;;;30.88;15.95;;;;;;;5.06;78.09;101833.66;4980527;28;20297;-83
2022/04/11 06:35:05;;;;;;;30.90;15.65;;;;;;;5.30;77.25;101834.03;4981358;28;20036;-83
2022/04/11 06:37:31;;;;;;;28.17;15.35;;;;;;;5.49;76.44;101830.84;4973765;28;20042;-84
2022/04/11 06:39:58;;;;;;;27.95;15.65;;;;;;;5.69;76.94;101833.66;4975935;28;20038;-84
2022/04/11 06:42:23;;;;;;;32.08;17.20;;;;;;;5.87;76.22;101825.28;4978828;28;20372;-84
2022/04/11 06:44:48;;;;;;;28.70;16.17;;;;;;;6.27;76.42;101824.94;4987470;28;20606;-84
2022/04/11 06:47:14;;;;;;;26.85;16.08;;;;;;;6.98;77.20;101832.38;4991473;28;20030;-84
2022/04/11 06:49:39;;;;;;;23.85;15.00;;;;;;;7.51;71.48;101830.09;4981112;28;20026;-84
2022/04/11 06:52:06;;;;;;;25.42;14.23;;;;;;;7.98;69.64;101820.81;4987700;28;20031;-85
2022/04/11 06:54:32;;;;;;;24.58;14.30;;;;;;;8.43;67.45;101833.84;4987709;28;20033;-84
2022/04/11 06:56:57;;;;;;;24.85;14.45;;;;;;;8.77;67.96;101832.13;4979353;28;20446;-84
2022/04/11 06:59:23;;;;;;;25.45;13.90;;;;;;;9.02;65.16;101833.81;4983520;28;20038;-84
2022/04/11 07:01:48;;;;;;;23.90;13.77;;;;;;;9.26;66.99;101838.09;4986956;28;20042;-84
2022/04/11 07:04:14;;;;;;;23.52;13.90;;;;;;;9.84;64.84;101836.16;4993188;28;20018;-84
2022/04/11 07:06:39;;;;;;;23.95;13.98;;;;;;;10.66;59.17;101834.78;4980846;28;20027;-84
2022/04/11 07:09:04;;;;;;;22.08;14.13;;;;;;;11.59;58.52;101839.06;4977859;28;20030;-84
2022/04/11 07:11:32;;;;;;;22.35;13.70;;;;;;;11.90;56.66;101837.81;4989232;28;20158;-85
2022/04/11 07:13:58;;;;;;;21.33;13.95;;;;;;;11.86;57.56;101839.63;4980896;28;20049;-84
2022/04/11 07:16:26;;;;;;;21.05;13.40;;;;;;;11.87;57.66;101830.09;4989587;28;20132;-84
2022/04/11 07:18:51;;;;;;;24.70;13.95;;;;;;;12.28;59.25;101832.09;4984335;28;20057;-84
2022/04/11 07:21:17;;;;;;;24.08;13.90;;;;;;;13.29;55.68;101826.94;4990316;28;20497;-84
2022/04/11 07:23:43;;;;;;;22.85;14.05;;;;;;;13.89;54.14;101818.75;4989381;28;20022;-84
2022/04/11 07:26:08;;;;;;;21.65;13.45;;;;;;;14.21;51.91;101816.25;4990130;28;20036;-85
2022/04/11 07:28:34;;;;;;;20.23;13.20;;;;;;;14.63;51.48;101809.19;4983619;28;20038;-84
2022/04/11 07:30:59;;;;;;;21.23;13.65;;;;;;;14.39;49.39;101808.94;4986717;28;20628;-85
2022/04/11 07:33:24;;;;;;;23.88;12.82;;;;;;;13.92;48.26;101810.00;4981252;28;20281;-84
2022/04/11 07:35:50;;;;;;;17.83;12.93;;;;;;;13.84;51.07;101810.16;4986250;28;20031;-85
2022/04/11 07:38:18;;;;;;;18.10;12.88;;;;;;;13.90;55.59;101804.81;4983031;28;20033;-84
2022/04/11 07:40:44;;;;;;;18.60;12.57;;;;;;;13.87;54.10;101810.09;4988312;28;20113;-85
2022/04/11 07:43:09;;;;;;;20.77;12.85;;;;;;;13.98;52.59;101800.31;4982427;28;20520;-84
2022/04/11 07:45:35;;;;;;;19.20;12.45;;;;;;;14.01;51.61;101802.81;4991719;28;20032;-85
2022/04/11 07:48:00;;;;;;;19.20;13.13;;;;;;;14.05;49.99;101799.28;4989686;28;20026;-85
2022/04/11 07:50:25;;;;;;;20.77;14.00;;;;;;;14.14;51.30;101793.81;4983413;28;20289;-85
2022/04/11 07:52:50;;;;;;;19.50;13.73;;;;;;;14.47;50.60;101791.31;4985806;28;20355;-84
2022/04/11 07:55:16;;;;;;;17.70;13.30;;;;;;;14.60;49.33;101788.38;4981764;28;20483;-84
2022/04/11 07:57:42;;;;;;;21.20;12.82;;;;;;;14.36;48.94;101795.94;4992067;28;20284;-84
2022/04/11 08:00:08;;;;;;;21.17;13.38;;;;;;;13.95;49.26;101796.88;4990651;28;20037;-84
2022/04/11 08:02:33;;;;;;;18.20;13.00;;;;;;;13.63;51.17;101787.16;4981148;28;20447;-84
2022/04/11 08:05:05;;;;;;;20.83;13.10;;;;;;;13.58;54.86;101795.06;4987263;28;20034;-84
2022/04/11 08:07:32;;;;;;;18.55;13.23;;;;;;;13.76;55.22;101786.00;4977243;28;20037;-84
2022/04/11 08:09:58;;;;;;;19.33;12.55;;;;;;;13.93;52.71;101783.88;4988826;28;20026;-84
2022/04/11 08:12:24;;;;;;;17.65;12.30;;;;;;;14.02;49.12;101788.91;4987815;28;20022;-84
2022/04/11 08:14:49;;;;;;;19.63;12.88;;;;;;;14.17;50.90;101785.09;4991989;28;20019;-84
2022/04/11 08:17:14;;;;;;;18.30;12.10;;;;;;;14.53;53.16;101781.59;4984945;28;20034;-84
2022/04/11 08:19:40;;;;;;;18.42;12.60;;;;;;;15.02;48.94;101772.50;4991364;28;20698;-84
2022/04/11 08:22:05;;;;;;;15.13;11.80;;;;;;;15.45;48.10;101773.91;4984652;28;20057;-84
2022/04/11 08:24:31;;;;;;;15.75;11.07;;;;;;;15.84;45.12;101772.75;4979189;28;20023;-84
2022/04/11 08:26:58;;;;;;;16.83;11.15;;;;;;;15.91;45.27;101768.19;4991187;28;20062;-84
2022/04/11 08:29:24;;;;;;;17.00;11.35;;;;;;;16.09;45.47;101763.25;4991317;28;20037;-84
2022/04/11 08:31:49;;;;;;;15.43;11.20;;;;;;;16.11;42.85;101761.44;4976151;28;20033;-84
2022/04/11 08:34:15;;;;;;;15.93;10.80;;;;;;;16.15;44.64;101772.66;4983137;28;20022;-85
2022/04/11 08:36:40;;;;;;;16.37;10.13;;;;;;;16.36;43.34;101771.97;4985630;28;20380;-84
2022/04/11 08:39:05;;;;;;;15.63;10.30;;;;;;;16.77;45.43;101767.13;4971921;28;20281;-84
2022/04/11 08:41:36;;;;;;;12.95;9.43;;;;;;;16.77;41.18;101762.75;4985797;28;20383;-84
2022/04/11 08:44:05;;;;;;;16.35;9.27;;;;;;;16.73;41.13;101755.03;4991161;28;20032;-84
2022/04/11 08:46:32;;;;;;;14.57;9.07;;;;;;;16.62;44.65;101754.56;4980369;28;20030;-84
2022/04/11 08:49:00;;;;;;;13.13;9.05;;;;;;;16.71;43.59;101754.25;4980904;28;20532;-85
2022/04/11 08:51:25;;;;;;;13.73;9.15;;;;;;;16.83;44.59;101751.22;4983750;28;20428;-84
2022/04/11 08:53:52;;;;;;;10.93;8.52;;;;;;;16.88;43.20;101754.50;4987515;28;20023;-85
2022/04/11 08:56:17;;;;;;;14.48;8.90;;;;;;;17.03;41.81;101747.88;4978694;28;20508;-85
2022/04/11 08:58:42;;;;;;;12.52;8.45;;;;;;;16.95;41.22;101746.38;4978554;28;20038;-85
2022/04/11 09:01:08;;;;;;;13.27;7.90;;;;;;;16.87;41.52;101744.94;4986959;28;20035;-84
2022/04/11 09:03:33;;;;;;;13.93;8.20;;;;;;;16.68;42.07;101741.25;4991418;28;20390;-84
2022/04/11 09:06:06;;;;;;;20.40;8.20;;;;;;;16.53;42.06;101747.84;4976461;28;20039;-84
2022/04/11 09:08:39;;;;;;;12.07;7.70;;;;;;;16.51;43.87;101747.06;4968985;28;20289;-84
2022/04/11 09:11:05;;;;;;;12.80;7.22;;;;;;;16.57;42.54;101752.09;4983710;28;20026;-84
2022/04/11 09:13:47;;;;;;;10.03;6.90;;;;;;;16.59;43.34;101753.72;4969161;28;20392;-84
2022/04/11 09:16:13;;;;;;;10.20;6.80;;;;;;;16.69;42.45;101753.44;4985540;28;20279;-84
2022/04/11 09:18:46;;;;;;;10.52;6.65;;;;;;;16.68;41.23;101756.97;4981471;28;20249;-83
2022/04/11 09:21:11;;;;;;;12.13;6.80;;;;;;;16.56;38.66;101750.38;4987714;28;20062;-83
2022/04/11 09:23:36;;;;;;;11.75;6.03;;;;;;;16.67;40.26;101744.78;4990647;28;20019;-83
2022/04/11 09:26:14;;;;;;;11.77;6.93;;;;;;;16.71;40.12;101738.56;4989488;28;20044;-83
2022/04/11 09:28:40;;;;;;;13.05;5.93;;;;;;;16.62;39.53;101738.84;4989162;28;20795;-83
2022/04/11 09:31:06;;;;;;;14.13;6.60;;;;;;;16.48;37.18;101736.69;4990345;28;20026;-83
2022/04/11 09:33:37;;;;;;;12.98;6.75;;;;;;;16.10;38.77;101730.13;4979417;28;20716;-83
2022/04/11 09:36:03;;;;;;;12.05;7.38;;;;;;;15.90;38.99;101730.72;5011643;28;20435;-83
2022/04/11 09:38:29;;;;;;;13.40;7.65;;;;;;;15.84;41.62;101722.22;4982086;28;20693;-83
2022/04/11 09:40:56;;;;;;;13.27;7.25;;;;;;;15.83;40.22;101718.75;4989214;28;20026;-83
2022/04/11 09:43:26;;;;;;;13.00;6.88;;;;;;;15.87;38.84;101716.91;4974430;28;20078;-83
2022/04/11 09:45:52;;;;;;;13.80;7.60;;;;;;;15.90;40.24;101716.81;4978779;28;20026;-83
2022/04/11 09:48:25;;;;;;;10.75;7.28;;;;;;;15.92;39.88;101713.22;4985977;28;20026;-83
2022/04/11 09:50:51;;;;;;;11.20;7.10;;;;;;;16.01;42.35;101705.09;4988862;28;20047;-83
2022/04/11 09:53:23;;;;;;;13.70;6.88;;;;;;;15.82;40.40;101713.59;4981778;28;20035;-83
2022/04/11 09:55:53;;;;;;;10.38;5.88;;;;;;;15.57;39.59;101701.25;4968415;28;20409;-83
2022/04/11 09:58:21;;;;;;;10.30;5.57;;;;;;;15.49;38.41;101707.63;4982361;28;20027;-83
2022/04/11 10:00:48;;;;;;;10.50;6.10;;;;;;;15.44;39.57;101699.88;4967576;28;20470;-83
2022/04/11 10:03:15;;;;;;;11.25;5.75;;;;;;;15.42;39.45;101699.09;4977855;28;20019;-83
2022/04/11 10:05:41;;;;;;;9.82;5.57;;;;;;;15.41;36.80;101703.47;4982488;28;20181;-84
2022/04/11 10:08:08;;;;;;;10.07;5.82;;;;;;;15.39;37.72;101691.34;4981336;28;20065;-84
2022/04/11 10:10:35;;;;;;;11.65;6.78;;;;;;;15.22;38.43;101699.66;4989796;28;20026;-84
2022/04/11 10:13:01;;;;;;;11.00;6.72;;;;;;;15.08;40.89;101693.97;4988792;28;20034;-83
2022/04/11 10:15:27;;;;;;;8.32;5.57;;;;;;;14.97;39.53;101683.84;4987374;28;20031;-84
2022/04/11 10:17:54;;;;;;;7.88;5.40;;;;;;;14.98;40.51;101687.31;4990162;28;20033;-84
2022/04/11 10:20:40;;;;;;;10.07;5.28;;;;;;;14.96;39.67;101696.94;4988737;28;20027;-83
2022/04/11 10:23:38;;;;;;;9.68;5.35;;;;;;;14.95;42.08;101680.44;4990039;28;20110;-83
2022/04/11 10:26:18;;;;;;;12.98;5.18;;;;;;;15.08;40.75;101682.72;4980636;28;20030;-83
2022/04/11 10:28:46;;;;;;;13.52;5.78;;;;;;;14.94;40.09;101680.50;4970693;28;20035;-83
2022/04/11 10:31:13;;;;;;;12.02;6.40;;;;;;;14.95;40.57;101675.19;4972542;28;20038;-84
2022/04/11 10:33:42;;;;;;;10.77;5.72;;;;;;;15.03;38.98;101673.22;4987344;28;20026;-83
2022/04/11 10:36:38;;;;;;;10.50;6.10;;;;;;;15.08;40.72;101670.47;4980924;28;20050;-84
2022/04/11 10:39:13;;;;;;;13.10;6.20;;;;;;;15.12;42.21;101676.47;4976929;28;20061;-84
2022/04/11 10:41:56;;;;;;;10.18;6.15;;;;;;;15.07;41.52;101666.19;4989858;28;20053;-83
2022/04/11 10:44:33;;;;;;;10.85;5.68;;;;;;;15.07;41.06;101668.78;4990072;28;20102;-83
2022/04/11 10:47:08;;;;;;;14.18;5.85;;;;;;;15.02;40.69;101668.91;4989845;28;20084;-83
2022/04/11 10:49:48;;;;;;;;;;;;;;;15.15;40.79;101669.41;4979764;28;20054;-84
2022/04/11 10:52:36;;;;;;;12.20;5.97;;;;;;;15.21;41.89;101661.41;4981217;28;19996;-83
2022/04/11 10:55:06;;;;;;;10.52;5.72;;;;;;;15.21;39.62;101656.19;4992464;28;20042;-83
2022/04/11 10:57:39;;;;;;;11.07;5.57;;;;;;;15.13;40.51;101659.91;4983875;28;20080;-83
2022/04/11 11:00:13;;;;;;;11.95;6.05;;;;;;;15.08;39.62;101651.38;4990680;28;20030;-83
2022/04/11 11:02:47;;;;;;;14.10;5.90;;;;;;;15.05;39.23;101647.09;4993261;28;20030;-83
2022/04/11 11:05:22;;;;;;;;;;;;;;;15.13;40.25;101649.47;4988210;28;20077;-84
2022/04/11 11:07:47;;;;;;;11.17;5.43;;;;;;;15.01;39.53;101643.69;5006128;28;19914;-83
2022/04/11 11:10:15;;;;;;;13.82;5.43;;;;;;;14.96;39.34;101639.50;4977242;28;20030;-84
2022/04/11 11:12:40;;;;;;;10.70;5.90;;;;;;;15.07;39.10;101636.59;4983092;28;20673;-83
2022/04/11 11:15:26;;;;;;;11.00;6.05;;;;;;;15.16;40.42;101637.16;4976690;28;20038;-84